createdAt,value
2023-01-23T00:00:08.172Z,81.81
2023-01-23T00:01:08.197Z,81.81
2023-01-23T00:02:08.336Z,81.71
2023-01-23T00:03:08.220Z,81.76
2023-01-23T00:04:08.456Z,81.76
2023-01-23T00:05:08.250Z,81.81
2023-01-23T00:06:08.264Z,81.81
2023-01-23T00:07:08.268Z,81.71
2023-01-23T00:08:08.305Z,81.81
2023-01-23T00:09:08.298Z,81.52
2023-01-23T00:10:08.061Z,81.76
2023-01-23T00:11:08.442Z,81.43
2023-01-23T00:12:08.343Z,81.71
2023-01-23T00:13:08.475Z,81.71
2023-01-23T00:14:08.367Z,81.81
2023-01-23T00:15:09.197Z,81.52
2023-01-23T00:16:08.292Z,81.81
2023-01-23T00:17:08.404Z,81.52
2023-01-23T00:18:08.408Z,81.43
2023-01-23T00:19:08.428Z,81.33
2023-01-23T00:20:08.442Z,81.43
2023-01-23T00:21:08.455Z,81.52
2023-01-23T00:22:08.368Z,81.43
2023-01-23T00:23:08.505Z,81.52
2023-01-23T00:24:08.235Z,81.48
2023-01-23T00:25:08.502Z,81.43
2023-01-23T00:26:08.554Z,81.52
2023-01-23T00:27:08.654Z,81.43
2023-01-23T00:28:08.556Z,81.81
2023-01-23T00:29:08.676Z,81.52
2023-01-23T00:30:08.574Z,81.9
2023-01-23T00:31:09.002Z,81.81
2023-01-23T00:32:08.684Z,81.43
2023-01-23T00:33:08.621Z,81.33
2023-01-23T00:34:08.982Z,81.43
2023-01-23T00:35:08.373Z,81.48
2023-01-23T00:36:08.651Z,81.81
2023-01-23T00:37:08.661Z,81.43
2023-01-23T00:38:08.731Z,81.62
2023-01-23T00:39:08.717Z,81.52
2023-01-23T00:40:08.692Z,81.52
2023-01-23T00:41:08.461Z,81.62
2023-01-23T00:42:08.473Z,81.62
2023-01-23T00:43:08.871Z,81.52
2023-01-23T00:44:08.507Z,81.52
2023-01-23T00:45:08.911Z,81.43
2023-01-23T00:46:08.629Z,81.52
2023-01-23T00:47:08.814Z,81.62
2023-01-23T00:48:08.801Z,81.62
2023-01-23T00:49:08.837Z,81.48
2023-01-23T00:50:08.829Z,81.52
2023-01-23T00:51:08.980Z,81.62
2023-01-23T00:52:08.857Z,81.43
2023-01-23T00:53:08.879Z,81.62
2023-01-23T00:54:08.641Z,81.52
2023-01-23T00:55:08.904Z,81.43
2023-01-23T00:56:08.982Z,81.62
2023-01-23T00:57:08.939Z,81.52
2023-01-23T00:58:08.679Z,81.62
2023-01-23T00:59:09.072Z,81.52
2023-01-23T01:00:08.966Z,81.71
2023-01-23T01:01:09.140Z,81.52
2023-01-23T01:02:09.001Z,81.52
2023-01-23T01:03:09.236Z,81.43
2023-01-23T01:04:09.020Z,81.52
2023-01-23T01:05:09.025Z,81.52
2023-01-23T01:06:09.075Z,81.52
2023-01-23T01:07:09.081Z,81.43
2023-01-23T01:08:09.083Z,81.52
2023-01-23T01:09:09.090Z,81.48
2023-01-23T01:10:09.100Z,81.62
2023-01-23T01:11:09.112Z,81.52
2023-01-23T01:12:09.120Z,81.57
2023-01-23T01:13:09.165Z,81.62
2023-01-23T01:14:08.885Z,81.57
2023-01-23T01:15:09.269Z,81.62
2023-01-23T01:16:09.377Z,81.52
2023-01-23T01:17:09.315Z,81.62
2023-01-23T01:18:09.219Z,81.62
2023-01-23T01:19:09.210Z,81.62
2023-01-23T01:20:09.229Z,81.48
2023-01-23T01:21:08.977Z,81.62
2023-01-23T01:22:09.265Z,81.62
2023-01-23T01:23:09.019Z,81.62
2023-01-23T01:24:09.286Z,81.71
2023-01-23T01:25:09.310Z,81.62
2023-01-23T01:26:09.044Z,81.48
2023-01-23T01:27:09.322Z,81.9
2023-01-23T01:28:09.344Z,81.43
2023-01-23T01:29:09.349Z,81.71
2023-01-23T01:30:09.360Z,81.33
2023-01-23T01:31:09.736Z,81.38
2023-01-23T01:32:09.132Z,81.99
2023-01-23T01:33:09.527Z,81.43
2023-01-23T01:34:09.820Z,81.81
2023-01-23T01:35:09.426Z,81.71
2023-01-23T01:36:09.424Z,81.71
2023-01-23T01:37:09.477Z,81.52
2023-01-23T01:38:09.201Z,81.71
2023-01-23T01:39:09.557Z,81.52
2023-01-23T01:40:09.520Z,81.71
2023-01-23T01:41:09.534Z,81.62
2023-01-23T01:42:09.514Z,81.43
2023-01-23T01:43:09.524Z,81.99
2023-01-23T01:44:09.560Z,81.43
2023-01-23T01:45:09.295Z,81.52
2023-01-23T01:46:09.626Z,81.43
2023-01-23T01:47:09.711Z,81.81
2023-01-23T01:48:09.339Z,81.9
2023-01-23T01:49:09.777Z,81.99
2023-01-23T01:50:12.162Z,81.9
2023-01-23T01:51:09.814Z,81.81
2023-01-23T01:52:09.659Z,81.71
2023-01-23T01:53:09.657Z,81.71
2023-01-23T01:54:09.682Z,81.43
2023-01-23T01:55:09.426Z,81.81
2023-01-23T01:56:09.702Z,81.81
2023-01-23T01:57:09.458Z,81.38
2023-01-23T01:58:09.728Z,81.76
2023-01-23T01:59:09.498Z,82.09
2023-01-23T02:00:09.757Z,81.43
2023-01-23T02:01:09.871Z,81.52
2023-01-23T02:02:09.846Z,81.71
2023-01-23T02:03:09.909Z,81.9
2023-01-23T02:04:09.553Z,81.52
2023-01-23T02:05:09.931Z,81.9
2023-01-23T02:06:09.825Z,81.99
2023-01-23T02:07:09.838Z,81.43
2023-01-23T02:08:09.853Z,82.09
2023-01-23T02:09:09.882Z,82.09
2023-01-23T02:10:09.880Z,81.9
2023-01-23T02:11:09.890Z,81.9
2023-01-23T02:12:10.024Z,81.43
2023-01-23T02:13:09.923Z,81.99
2023-01-23T02:14:09.942Z,81.52
2023-01-23T02:15:09.952Z,82.09
2023-01-23T02:16:10.006Z,81.52
2023-01-23T02:17:09.977Z,81.99
2023-01-23T02:18:09.994Z,81.81
2023-01-23T02:19:10.233Z,81.9
2023-01-23T02:22:14.993Z,81.9
2023-01-23T02:23:14.883Z,81.99
2023-01-23T02:24:14.905Z,81.99
2023-01-23T02:25:14.918Z,82.18
2023-01-23T02:26:14.927Z,81.99
2023-01-23T02:27:14.936Z,82.18
2023-01-23T02:28:15.010Z,82.18
2023-01-23T02:29:14.963Z,81.99
2023-01-23T02:30:14.721Z,82.18
2023-01-23T02:31:15.261Z,82.18
2023-01-23T02:32:15.011Z,82.09
2023-01-23T02:33:15.021Z,81.9
2023-01-23T02:34:15.253Z,82.09
2023-01-23T02:35:15.085Z,81.81
2023-01-23T02:36:15.058Z,81.71
2023-01-23T02:37:15.078Z,82.09
2023-01-23T02:38:15.225Z,82.05
2023-01-23T02:39:15.098Z,82.05
2023-01-23T02:40:15.124Z,81.81
2023-01-23T02:41:15.124Z,81.9
2023-01-23T02:42:15.138Z,81.99
2023-01-23T02:43:15.332Z,82.18
2023-01-23T02:44:15.167Z,81.9
2023-01-23T02:45:15.365Z,81.9
2023-01-23T02:46:14.971Z,81.81
2023-01-23T02:47:15.298Z,81.9
2023-01-23T02:48:15.373Z,81.99
2023-01-23T02:49:15.387Z,81.9
2023-01-23T02:50:15.504Z,81.95
2023-01-23T02:51:15.396Z,81.99
2023-01-23T02:52:15.047Z,82.09
2023-01-23T02:53:15.277Z,81.9
2023-01-23T02:54:15.473Z,81.81
2023-01-23T02:55:15.356Z,81.81
2023-01-23T02:56:15.318Z,81.99
2023-01-23T02:57:15.067Z,81.81
2023-01-23T02:58:15.342Z,81.81
2023-01-23T02:59:15.442Z,81.81
2023-01-23T03:00:15.370Z,81.9
2023-01-23T03:01:15.460Z,81.81
2023-01-23T03:02:15.488Z,81.9
2023-01-23T03:03:15.165Z,81.99
2023-01-23T03:04:15.179Z,81.99
2023-01-23T03:05:15.454Z,81.9
2023-01-23T03:06:15.565Z,81.99
2023-01-23T03:07:15.487Z,81.9
2023-01-23T03:08:15.495Z,81.99
2023-01-23T03:09:15.505Z,81.9
2023-01-23T03:10:15.618Z,81.99
2023-01-23T03:11:15.507Z,81.99
2023-01-23T03:12:15.528Z,81.99
2023-01-23T03:13:15.522Z,81.99
2023-01-23T03:14:15.561Z,81.99
2023-01-23T03:15:15.327Z,81.99
2023-01-23T03:16:15.677Z,81.86
2023-01-23T03:17:15.585Z,81.99
2023-01-23T03:18:15.628Z,81.99
2023-01-23T03:19:15.360Z,81.81
2023-01-23T03:20:15.370Z,81.99
2023-01-23T03:21:15.651Z,81.9
2023-01-23T03:22:15.793Z,81.81
2023-01-23T03:23:15.681Z,81.81
2023-01-23T03:24:15.685Z,81.99
2023-01-23T03:25:15.692Z,81.9
2023-01-23T03:26:15.821Z,81.9
2023-01-23T03:27:15.726Z,81.99
2023-01-23T03:28:15.726Z,81.81
2023-01-23T03:29:15.484Z,81.9
2023-01-23T03:30:15.843Z,81.81
2023-01-23T03:31:15.892Z,81.9
2023-01-23T03:32:15.789Z,81.99
2023-01-23T03:33:15.798Z,81.99
2023-01-23T03:34:15.819Z,81.81
2023-01-23T03:35:15.814Z,81.99
2023-01-23T03:36:15.844Z,81.99
2023-01-23T03:37:15.876Z,82.09
2023-01-23T03:38:15.988Z,81.81
2023-01-23T03:39:15.873Z,81.81
2023-01-23T03:40:15.877Z,81.71
2023-01-23T03:41:15.911Z,81.99
2023-01-23T03:42:16.045Z,81.81
2023-01-23T03:43:15.968Z,81.99
2023-01-23T03:44:15.945Z,81.9
2023-01-23T03:45:15.970Z,82.09
2023-01-23T03:46:15.725Z,81.9
2023-01-23T03:47:15.740Z,82.18
2023-01-23T03:48:15.998Z,81.81
2023-01-23T03:49:16.275Z,81.99
2023-01-23T03:50:15.782Z,81.71
2023-01-23T03:51:16.201Z,81.99
2023-01-23T03:52:16.047Z,81.99
2023-01-23T03:53:16.052Z,81.81
2023-01-23T03:54:16.393Z,82.09
2023-01-23T03:55:16.081Z,81.9
2023-01-23T03:56:16.087Z,81.99
2023-01-23T03:57:16.116Z,81.81
2023-01-23T03:58:16.241Z,82.09
2023-01-23T03:59:16.131Z,82.28
2023-01-23T04:00:15.973Z,82.18
2023-01-23T04:01:16.003Z,81.99
2023-01-23T04:02:16.020Z,82.18
2023-01-23T04:03:15.947Z,81.9
2023-01-23T04:04:15.947Z,81.71
2023-01-23T04:05:16.212Z,81.81
2023-01-23T04:06:16.225Z,82.09
2023-01-23T04:07:16.261Z,81.71
2023-01-23T04:08:16.254Z,81.9
2023-01-23T04:09:16.278Z,81.9
2023-01-23T04:10:16.154Z,81.9
2023-01-23T04:11:16.297Z,81.81
2023-01-23T04:12:16.071Z,81.9
2023-01-23T04:13:16.324Z,82.18
2023-01-23T04:14:16.457Z,82.28
2023-01-23T04:15:16.357Z,82.28
2023-01-23T04:16:16.501Z,82.09
2023-01-23T04:17:16.391Z,82.18
2023-01-23T04:18:16.131Z,82.28
2023-01-23T04:19:16.403Z,81.81
2023-01-23T04:20:16.411Z,81.99
2023-01-23T04:21:16.423Z,81.99
2023-01-23T04:22:16.444Z,82.18
2023-01-23T04:23:16.461Z,82.09
2023-01-23T04:24:16.478Z,81.9
2023-01-23T04:25:16.480Z,82.09
2023-01-23T04:26:16.611Z,82.09
2023-01-23T04:27:16.517Z,82.09
2023-01-23T04:28:16.529Z,82.09
2023-01-23T04:29:16.537Z,81.9
2023-01-23T04:30:16.741Z,82.18
2023-01-23T04:31:16.890Z,82.18
2023-01-23T04:32:16.567Z,82.09
2023-01-23T04:33:16.593Z,81.9
2023-01-23T04:34:16.343Z,82.28
2023-01-23T04:35:16.611Z,82.18
2023-01-23T04:36:16.627Z,82.09
2023-01-23T04:37:16.653Z,81.81
2023-01-23T04:38:16.395Z,82.18
2023-01-23T04:39:16.668Z,81.81
2023-01-23T04:40:16.426Z,81.9
2023-01-23T04:41:16.688Z,82.28
2023-01-23T04:42:16.857Z,82.28
2023-01-23T04:43:16.728Z,82.28
2023-01-23T04:44:16.732Z,81.99
2023-01-23T04:45:16.750Z,82.18
2023-01-23T04:46:16.993Z,82.18
2023-01-23T04:47:16.775Z,81.9
2023-01-23T04:48:16.786Z,82.09
2023-01-23T04:49:16.796Z,81.99
2023-01-23T04:50:16.922Z,82.09
2023-01-23T04:51:16.877Z,82.09
2023-01-23T04:52:16.846Z,81.99
2023-01-23T04:53:16.855Z,82.09
2023-01-23T04:54:17.338Z,81.9
2023-01-23T04:55:16.892Z,82.18
2023-01-23T04:56:16.894Z,81.99
2023-01-23T04:57:16.905Z,82.09
2023-01-23T04:58:17.041Z,82.09
2023-01-23T04:59:16.944Z,82.09
2023-01-23T05:00:17.060Z,82.18
2023-01-23T05:01:16.799Z,82.28
2023-01-23T05:02:17.230Z,81.99
2023-01-23T05:03:16.990Z,82.18
2023-01-23T05:04:17.009Z,82.09
2023-01-23T05:05:17.007Z,82.28
2023-01-23T05:06:17.029Z,82.28
2023-01-23T05:07:17.030Z,82.28
2023-01-23T05:08:17.055Z,82.56
2023-01-23T05:09:17.072Z,82.47
2023-01-23T05:10:17.077Z,82.28
2023-01-23T05:11:16.834Z,82.47
2023-01-23T05:12:17.109Z,81.99
2023-01-23T05:13:17.122Z,81.99
2023-01-23T05:14:17.259Z,82.47
2023-01-23T05:15:16.886Z,82.18
2023-01-23T05:16:17.268Z,82.09
2023-01-23T05:17:17.161Z,82.09
2023-01-23T05:18:17.204Z,81.99
2023-01-23T05:19:17.300Z,82.37
2023-01-23T05:20:17.434Z,82.09
2023-01-23T05:21:17.310Z,82.09
2023-01-23T05:22:16.965Z,82.09
2023-01-23T05:23:17.004Z,82.18
2023-01-23T05:24:17.258Z,82.09
2023-01-23T05:25:17.272Z,82.09
2023-01-23T05:26:17.047Z,82.09
2023-01-23T05:27:17.300Z,82.18
2023-01-23T05:28:17.309Z,82.47
2023-01-23T05:29:17.334Z,82.18
2023-01-23T05:30:17.672Z,82.18
2023-01-23T05:31:17.566Z,82.18
2023-01-23T05:32:17.365Z,82.18
2023-01-23T05:33:17.400Z,82.18
2023-01-23T05:34:17.521Z,81.99
2023-01-23T05:35:17.148Z,82.09
2023-01-23T05:36:20.730Z,81.99
2023-01-23T05:37:17.168Z,81.99
2023-01-23T05:38:17.446Z,82.09
2023-01-23T05:39:17.467Z,82.18
2023-01-23T05:40:17.683Z,82.18
2023-01-23T05:41:17.222Z,82.18
2023-01-23T05:42:17.504Z,81.99
2023-01-23T05:43:17.522Z,82.09
2023-01-23T05:44:17.524Z,81.99
2023-01-23T05:45:17.548Z,81.99
2023-01-23T05:46:17.829Z,81.99
2023-01-23T05:47:17.557Z,81.99
2023-01-23T05:48:17.573Z,82.18
2023-01-23T05:49:17.590Z,82.18
2023-01-23T05:50:18.006Z,81.99
2023-01-23T05:51:17.606Z,82.18
2023-01-23T05:52:17.632Z,82.18
2023-01-23T05:53:17.637Z,82.09
2023-01-23T05:54:18.011Z,82.37
2023-01-23T05:55:17.407Z,82.09
2023-01-23T05:56:17.670Z,82.09
2023-01-23T05:57:17.696Z,82.18
2023-01-23T05:58:18.606Z,81.99
2023-01-23T05:59:17.721Z,81.99
2023-01-23T06:00:17.589Z,81.99
2023-01-23T06:01:17.744Z,82.18
2023-01-23T06:02:17.973Z,82.18
2023-01-23T06:03:17.870Z,82.09
2023-01-23T06:04:17.534Z,82.37
2023-01-23T06:05:17.847Z,81.99
2023-01-23T06:06:17.942Z,82.09
2023-01-23T06:07:17.830Z,82.18
2023-01-23T06:08:17.843Z,81.99
2023-01-23T06:09:17.855Z,82.09
2023-01-23T06:10:18.217Z,82.18
2023-01-23T06:11:17.887Z,82.18
2023-01-23T06:12:17.894Z,82.18
2023-01-23T06:13:17.919Z,82.47
2023-01-23T06:14:17.919Z,82.28
2023-01-23T06:15:17.926Z,82.28
2023-01-23T06:16:18.070Z,82.28
2023-01-23T06:17:17.975Z,82.28
2023-01-23T06:18:18.033Z,81.99
2023-01-23T06:19:17.987Z,82.37
2023-01-23T06:20:18.282Z,82.18
2023-01-23T06:21:18.002Z,82.09
2023-01-23T06:22:18.138Z,82.09
2023-01-23T06:23:18.031Z,82.09
2023-01-23T06:24:17.783Z,82.28
2023-01-23T06:25:18.070Z,82.18
2023-01-23T06:26:18.087Z,82.18
2023-01-23T06:27:17.830Z,82.18
2023-01-23T06:28:18.100Z,82.18
2023-01-23T06:29:17.856Z,82.09
2023-01-23T06:30:18.277Z,81.95
2023-01-23T06:31:18.563Z,82.47
2023-01-23T06:32:18.152Z,82.37
2023-01-23T06:33:18.246Z,81.99
2023-01-23T06:34:18.322Z,81.99
2023-01-23T06:35:18.252Z,82.09
2023-01-23T06:36:18.202Z,82.28
2023-01-23T06:37:17.955Z,81.99
2023-01-23T06:38:18.353Z,82.18
2023-01-23T06:39:18.242Z,82.37
2023-01-23T06:40:18.564Z,82.09
2023-01-23T06:41:19.887Z,82.18
2023-01-23T06:42:18.297Z,82.18
2023-01-23T06:43:18.306Z,82.18
2023-01-23T06:44:18.302Z,82.56
2023-01-23T06:45:18.666Z,82.66
2023-01-23T06:46:18.438Z,82.56
2023-01-23T06:47:18.344Z,82.09
2023-01-23T06:48:18.114Z,82.47
2023-01-23T06:49:18.393Z,82.09
2023-01-23T06:50:18.761Z,82.09
2023-01-23T06:51:18.488Z,82.56
2023-01-23T06:52:18.156Z,82.09
2023-01-23T06:53:18.433Z,81.99
2023-01-23T06:54:18.993Z,82.28
2023-01-23T06:55:18.465Z,81.99
2023-01-23T06:56:18.486Z,82.47
2023-01-23T06:57:18.213Z,82.28
2023-01-23T06:58:18.597Z,82.56
2023-01-23T06:59:18.504Z,82.28
2023-01-23T07:00:18.811Z,81.9
2023-01-23T07:01:18.751Z,82.37
2023-01-23T07:02:18.640Z,82.37
2023-01-23T07:03:18.427Z,82.37
2023-01-23T07:04:18.568Z,82.09
2023-01-23T07:05:18.583Z,82.37
2023-01-23T07:06:18.467Z,82.47
2023-01-23T07:07:18.366Z,82.47
2023-01-23T07:08:18.620Z,82.47
2023-01-23T07:09:18.650Z,82.28
2023-01-23T07:10:18.982Z,82.09
2023-01-23T07:11:18.668Z,82.47
2023-01-23T07:12:18.678Z,82.37
2023-01-23T07:13:18.694Z,81.99
2023-01-23T07:14:18.716Z,82.18
2023-01-23T07:15:18.720Z,81.99
2023-01-23T07:16:18.804Z,81.99
2023-01-23T07:17:18.747Z,81.99
2023-01-23T07:18:18.755Z,82.56
2023-01-23T07:19:18.766Z,82.09
2023-01-23T07:20:18.866Z,82.47
2023-01-23T07:21:18.787Z,82.47
2023-01-23T07:22:18.921Z,82.28
2023-01-23T07:23:18.815Z,82.09
2023-01-23T07:24:18.833Z,82.47
2023-01-23T07:25:18.845Z,81.99
2023-01-23T07:26:18.982Z,82.37
2023-01-23T07:27:18.899Z,81.99
2023-01-23T07:28:18.901Z,82.09
2023-01-23T07:29:18.906Z,82.47
2023-01-23T07:30:18.932Z,82.28
2023-01-23T07:31:19.148Z,82.56
2023-01-23T07:32:18.937Z,82.37
2023-01-23T07:33:18.692Z,82.47
2023-01-23T07:34:18.706Z,82.09
2023-01-23T07:35:18.980Z,82.47
2023-01-23T07:36:18.990Z,82.28
2023-01-23T07:37:19.003Z,82.37
2023-01-23T07:38:19.183Z,81.9
2023-01-23T07:39:19.021Z,82.28
2023-01-23T07:40:19.382Z,82.28
2023-01-23T07:41:19.073Z,82.37
2023-01-23T07:42:19.198Z,82.66
2023-01-23T07:43:19.086Z,82.47
2023-01-23T07:44:18.863Z,82.47
2023-01-23T07:45:19.105Z,81.99
2023-01-23T07:46:19.251Z,82.47
2023-01-23T07:47:19.150Z,82.09
2023-01-23T07:48:19.178Z,82.37
2023-01-23T07:49:19.164Z,81.99
2023-01-23T07:50:19.502Z,82.18
2023-01-23T07:51:19.268Z,82.47
2023-01-23T07:52:19.230Z,82.18
2023-01-23T07:53:19.213Z,82.47
2023-01-23T07:54:19.830Z,81.99
2023-01-23T07:55:19.238Z,82.56
2023-01-23T07:56:19.250Z,82.47
2023-01-23T07:57:19.263Z,82.09
2023-01-23T07:58:19.416Z,81.99
2023-01-23T07:59:19.288Z,81.99
2023-01-23T08:00:19.632Z,81.99
2023-01-23T08:01:19.546Z,82.47
2023-01-23T08:02:19.081Z,82.56
2023-01-23T08:03:19.351Z,81.9
2023-01-23T08:04:19.427Z,82.09
2023-01-23T08:05:19.369Z,82.56
2023-01-23T08:06:19.136Z,82.56
2023-01-23T08:07:19.500Z,82.37
2023-01-23T08:08:19.407Z,81.99
2023-01-23T08:09:19.422Z,82.09
2023-01-23T08:10:19.942Z,82.28
2023-01-23T08:11:19.470Z,82.28
2023-01-23T08:12:19.494Z,82.28
2023-01-23T08:13:19.470Z,82.28
2023-01-23T08:14:19.603Z,82.47
2023-01-23T08:15:19.494Z,82.47
2023-01-23T08:16:19.384Z,81.9
2023-01-23T08:17:19.532Z,82.47
2023-01-23T08:18:19.557Z,82.37
2023-01-23T08:19:19.570Z,82.28
2023-01-23T08:20:19.879Z,82.28
2023-01-23T08:21:19.616Z,81.99
2023-01-23T08:22:19.598Z,81.9
2023-01-23T08:23:19.612Z,82.28
2023-01-23T08:24:19.359Z,82.09
2023-01-23T08:25:19.631Z,82.09
2023-01-23T08:26:19.783Z,82.09
2023-01-23T08:27:19.658Z,82.28
2023-01-23T08:28:19.684Z,82.47
2023-01-23T08:29:19.922Z,82.47
2023-01-23T08:30:20.679Z,81.99
2023-01-23T08:31:19.688Z,82.28
2023-01-23T08:32:19.721Z,82.28
2023-01-23T08:33:19.746Z,82.28
2023-01-23T08:34:19.763Z,82.18
2023-01-23T08:35:19.787Z,82.37
2023-01-23T08:36:19.785Z,82.37
2023-01-23T08:37:19.791Z,81.99
2023-01-23T08:38:19.814Z,82.28
2023-01-23T08:39:19.818Z,82.09
2023-01-23T08:40:20.059Z,82.28
2023-01-23T08:41:19.840Z,82.28
2023-01-23T08:42:19.968Z,82.18
2023-01-23T08:43:19.611Z,82.09
2023-01-23T08:44:19.898Z,82.28
2023-01-23T08:45:19.898Z,82.47
2023-01-23T08:46:20.024Z,82.37
2023-01-23T08:47:19.925Z,82.28
2023-01-23T08:48:19.935Z,81.99
2023-01-23T08:49:19.951Z,82.28
2023-01-23T08:50:20.311Z,82.18
2023-01-23T08:51:20.113Z,82.28
2023-01-23T08:52:20.024Z,82.37
2023-01-23T08:53:20.008Z,82.47
2023-01-23T08:54:20.217Z,81.99
2023-01-23T08:55:20.035Z,81.99
2023-01-23T08:56:20.058Z,81.99
2023-01-23T08:57:20.062Z,82.28
2023-01-23T08:58:20.254Z,81.99
2023-01-23T08:59:20.087Z,82.37
2023-01-23T09:00:20.792Z,82.37
2023-01-23T09:01:20.211Z,82.56
2023-01-23T09:02:20.377Z,82.28
2023-01-23T09:03:20.139Z,82.47
2023-01-23T09:04:20.148Z,82.09
2023-01-23T09:05:20.164Z,81.99
2023-01-23T09:06:20.191Z,82.47
2023-01-23T09:07:20.200Z,81.95
2023-01-23T09:08:20.194Z,82.56
2023-01-23T09:09:20.218Z,82.37
2023-01-23T09:10:20.748Z,82.37
2023-01-23T09:11:20.308Z,82.09
2023-01-23T09:12:20.003Z,82.28
2023-01-23T09:13:20.010Z,82.47
2023-01-23T09:14:20.427Z,82.28
2023-01-23T09:15:20.291Z,82.47
2023-01-23T09:16:20.426Z,82.47
2023-01-23T09:17:20.059Z,82.18
2023-01-23T09:18:20.462Z,82.18
2023-01-23T09:19:20.358Z,82.18
2023-01-23T09:20:20.927Z,81.99
2023-01-23T09:21:20.117Z,82.09
2023-01-23T09:22:20.130Z,82.18
2023-01-23T09:23:20.399Z,82.18
2023-01-23T09:24:20.408Z,82.18
2023-01-23T09:25:20.416Z,82.47
2023-01-23T09:26:22.363Z,82.47
2023-01-23T09:27:20.441Z,82.18
2023-01-23T09:28:20.484Z,82.47
2023-01-23T09:29:20.477Z,82.37
2023-01-23T09:30:21.320Z,82.18
2023-01-23T09:31:20.596Z,82.47
2023-01-23T09:32:20.520Z,82.47
2023-01-23T09:33:20.579Z,82.18
2023-01-23T09:34:20.689Z,82.18
2023-01-23T09:35:20.561Z,82.18
2023-01-23T09:36:27.539Z,82.18
2023-01-23T09:37:20.584Z,82.18
2023-01-23T09:38:20.594Z,82.56
2023-01-23T09:39:20.615Z,82.56
2023-01-23T09:40:21.555Z,82.18
2023-01-23T09:41:20.660Z,82.47
2023-01-23T09:42:20.413Z,82.18
2023-01-23T09:43:20.659Z,82.47
2023-01-23T09:44:20.678Z,82.47
2023-01-23T09:45:20.689Z,82.18
2023-01-23T09:46:21.030Z,82.56
2023-01-23T09:47:20.456Z,82.37
2023-01-23T09:48:20.758Z,82.37
2023-01-23T09:49:20.734Z,82.28
2023-01-23T09:50:21.552Z,82.75
2023-01-23T09:51:20.927Z,82.47
2023-01-23T09:52:20.531Z,82.28
2023-01-23T09:53:20.783Z,82.09
2023-01-23T09:54:21.162Z,82.37
2023-01-23T09:55:20.823Z,82.28
2023-01-23T09:56:20.829Z,82.28
2023-01-23T09:57:20.842Z,82.28
2023-01-23T09:58:20.855Z,82.18
2023-01-23T09:59:20.906Z,82.47
2023-01-23T10:00:21.267Z,82.56
2023-01-23T10:01:20.940Z,82.47
2023-01-23T10:02:20.861Z,82.47
2023-01-23T10:03:20.666Z,82.28
2023-01-23T10:04:20.681Z,82.47
2023-01-23T10:05:20.953Z,82.47
2023-01-23T10:06:21.108Z,82.28
2023-01-23T10:07:21.919Z,82.37
2023-01-23T10:08:20.730Z,82.28
2023-01-23T10:09:21.005Z,82.47
2023-01-23T10:10:21.334Z,82.94
2023-01-23T10:11:21.020Z,82.37
2023-01-23T10:12:21.036Z,82.09
2023-01-23T10:13:21.061Z,82.66
2023-01-23T10:14:20.831Z,82.47
2023-01-23T10:15:21.801Z,82.85
2023-01-23T10:16:20.969Z,83.04
2023-01-23T10:17:21.230Z,82.85
2023-01-23T10:18:21.137Z,82.47
2023-01-23T10:19:20.870Z,82.28
2023-01-23T10:20:21.896Z,82.85
2023-01-23T10:21:21.170Z,82.09
2023-01-23T10:22:25.519Z,82.47
2023-01-23T10:23:20.930Z,82.85
2023-01-23T10:24:23.534Z,82.28
2023-01-23T10:25:21.595Z,83.04
2023-01-23T10:26:21.230Z,82.75
2023-01-23T10:27:21.236Z,82.47
2023-01-23T10:28:21.244Z,82.28
2023-01-23T10:29:21.271Z,82.18
2023-01-23T10:30:22.253Z,83.04
2023-01-23T10:31:21.509Z,82.18
2023-01-23T10:32:21.297Z,82.47
2023-01-23T10:33:21.070Z,82.85
2023-01-23T10:34:21.463Z,82.47
2023-01-23T10:35:22.129Z,82.66
2023-01-23T10:36:27.369Z,82.28
2023-01-23T10:37:21.463Z,82.47
2023-01-23T10:38:21.517Z,82.28
2023-01-23T10:39:21.420Z,82.66
2023-01-23T10:40:22.049Z,82.56
2023-01-23T10:41:23.405Z,83.04
2023-01-23T10:42:21.592Z,82.85
2023-01-23T10:43:21.451Z,82.85
2023-01-23T10:44:21.466Z,82.85
2023-01-23T10:45:22.288Z,82.37
2023-01-23T10:46:21.739Z,82.85
2023-01-23T10:47:21.512Z,82.94
2023-01-23T10:48:21.509Z,82.37
2023-01-23T10:49:21.553Z,82.18
2023-01-23T10:50:21.665Z,82.37
2023-01-23T10:51:21.638Z,82.66
2023-01-23T10:52:23.720Z,82.85
2023-01-23T10:53:21.583Z,82.37
2023-01-23T10:54:34.294Z,82.94
2023-01-23T10:55:22.639Z,82.85
2023-01-23T10:56:21.616Z,82.85
2023-01-23T10:57:21.655Z,82.94
2023-01-23T10:58:21.645Z,82.85
2023-01-23T10:59:21.658Z,82.56
2023-01-23T11:00:21.672Z,82.85
2023-01-23T11:01:21.807Z,82.66
2023-01-23T11:02:22.101Z,83.04
2023-01-23T11:03:21.776Z,82.94
2023-01-23T11:04:21.755Z,82.66
2023-01-23T11:05:22.406Z,82.94
2023-01-23T11:06:21.873Z,82.75
2023-01-23T11:07:21.777Z,82.94
2023-01-23T11:08:21.844Z,82.66
2023-01-23T11:09:21.792Z,82.85
2023-01-23T11:10:21.921Z,82.56
2023-01-23T11:11:21.820Z,82.66
2023-01-23T11:12:21.835Z,82.56
2023-01-23T11:13:21.840Z,82.47
2023-01-23T11:14:21.863Z,82.56
2023-01-23T11:15:22.446Z,82.56
2023-01-23T11:16:22.091Z,82.85
2023-01-23T11:17:21.890Z,82.47
2023-01-23T11:18:21.907Z,82.56
2023-01-23T11:19:21.938Z,82.56
2023-01-23T11:20:21.937Z,82.56
2023-01-23T11:21:21.947Z,82.47
2023-01-23T11:22:22.088Z,82.56
2023-01-23T11:23:21.974Z,82.66
2023-01-23T11:24:38.958Z,82.47
2023-01-23T11:25:22.375Z,82.47
2023-01-23T11:26:22.132Z,82.66
2023-01-23T11:27:21.765Z,82.56
2023-01-23T11:28:22.063Z,82.66
2023-01-23T11:29:22.068Z,82.75
2023-01-23T11:30:22.120Z,82.56
2023-01-23T11:31:22.475Z,82.47
2023-01-23T11:32:22.382Z,82.47
2023-01-23T11:33:22.129Z,82.47
2023-01-23T11:34:22.125Z,82.56
2023-01-23T11:35:22.750Z,82.56
2023-01-23T11:36:22.166Z,82.56
2023-01-23T11:37:22.165Z,82.47
2023-01-23T11:38:33.251Z,82.56
2023-01-23T11:39:21.939Z,82.66
2023-01-23T11:40:22.227Z,82.66
2023-01-23T11:41:22.216Z,82.56
2023-01-23T11:42:22.368Z,82.66
2023-01-23T11:43:22.244Z,82.56
2023-01-23T11:44:25.500Z,82.66
2023-01-23T11:45:22.657Z,82.47
2023-01-23T11:46:22.494Z,82.66
2023-01-23T11:47:22.448Z,82.47
2023-01-23T11:48:22.296Z,82.66
2023-01-23T11:49:22.307Z,82.56
2023-01-23T11:50:22.337Z,82.75
2023-01-23T11:51:22.222Z,82.75
2023-01-23T11:52:22.371Z,82.56
2023-01-23T11:53:33.608Z,82.56
2023-01-23T11:54:22.463Z,82.56
2023-01-23T11:55:23.306Z,82.66
2023-01-23T11:56:22.416Z,82.75
2023-01-23T11:57:22.433Z,82.66
2023-01-23T11:58:22.556Z,82.56
2023-01-23T11:59:22.454Z,82.56
2023-01-23T12:00:23.352Z,82.47
2023-01-23T12:01:22.499Z,82.75
2023-01-23T12:02:22.667Z,82.66
2023-01-23T12:03:22.505Z,82.47
2023-01-23T12:04:22.521Z,82.47
2023-01-23T12:05:23.387Z,82.75
2023-01-23T12:06:23.100Z,82.75
2023-01-23T12:07:22.285Z,82.28
2023-01-23T12:08:22.583Z,82.66
2023-01-23T12:09:22.642Z,82.47
2023-01-23T12:10:22.490Z,82.47
2023-01-23T12:11:22.361Z,82.56
2023-01-23T12:12:22.619Z,82.75
2023-01-23T12:13:22.649Z,82.75
2023-01-23T12:14:22.761Z,82.56
2023-01-23T12:15:22.402Z,82.75
2023-01-23T12:16:22.533Z,82.28
2023-01-23T12:17:22.791Z,82.37
2023-01-23T12:18:22.695Z,82.47
2023-01-23T12:19:22.471Z,82.47
2023-01-23T12:20:23.428Z,82.47
2023-01-23T12:21:22.761Z,82.47
2023-01-23T12:22:22.778Z,82.47
2023-01-23T12:23:22.766Z,82.47
2023-01-23T12:24:22.834Z,82.28
2023-01-23T12:25:23.385Z,82.56
2023-01-23T12:26:22.935Z,82.47
2023-01-23T12:27:22.831Z,82.47
2023-01-23T12:28:22.848Z,82.28
2023-01-23T12:29:22.846Z,82.66
2023-01-23T12:30:23.543Z,82.37
2023-01-23T12:31:22.786Z,82.47
2023-01-23T12:32:23.194Z,82.47
2023-01-23T12:33:22.904Z,82.47
2023-01-23T12:34:22.914Z,82.56
2023-01-23T12:35:22.940Z,82.56
2023-01-23T12:36:22.980Z,82.66
2023-01-23T12:37:33.288Z,82.75
2023-01-23T12:38:22.966Z,82.66
2023-01-23T12:39:23.118Z,82.56
2023-01-23T12:40:23.585Z,82.75
2023-01-23T12:41:22.760Z,82.75
2023-01-23T12:42:23.144Z,82.85
2023-01-23T12:43:23.075Z,82.85
2023-01-23T12:44:22.784Z,82.37
2023-01-23T12:45:23.905Z,82.75
2023-01-23T12:46:23.189Z,82.66
2023-01-23T12:47:23.088Z,82.75
2023-01-23T12:48:23.205Z,82.85
2023-01-23T12:49:22.846Z,82.47
2023-01-23T12:50:23.133Z,82.85
2023-01-23T12:51:23.228Z,82.75
2023-01-23T12:52:23.164Z,82.75
2023-01-23T12:53:23.157Z,82.75
2023-01-23T12:54:23.480Z,82.56
2023-01-23T12:55:23.329Z,82.56
2023-01-23T12:56:22.945Z,82.56